sensor_id;sensor_type;location;lat;lon;timestamp;temperature;humidity
23556;DHT22;11956;53.184;8.578;2023-07-22T00:00:34;13.60;99.90
23556;DHT22;11956;53.184;8.578;2023-07-22T00:03:35;13.70;99.90
23556;DHT22;11956;53.184;8.578;2023-07-22T00:06:35;13.60;99.90
23556;DHT22;11956;53.184;8.578;2023-07-22T00:09:36;13.70;99.90
23556;DHT22;11956;53.184;8.578;2023-07-22T00:12:39;13.60;99.90
23556;DHT22;11956;53.184;8.578;2023-07-22T00:15:40;13.60;99.90
23556;DHT22;11956;53.184;8.578;2023-07-22T00:18:40;13.60;99.90
23556;DHT22;11956;53.184;8.578;2023-07-22T00:21:42;13.60;99.90
23556;DHT22;11956;53.184;8.578;2023-07-22T00:24:43;13.50;99.90
23556;DHT22;11956;53.184;8.578;2023-07-22T00:27:43;13.50;99.90
23556;DHT22;11956;53.184;8.578;2023-07-22T00:30:44;13.50;99.90
23556;DHT22;11956;53.184;8.578;2023-07-22T00:33:45;13.50;99.90
23556;DHT22;11956;53.184;8.578;2023-07-22T00:36:46;13.50;99.90
23556;DHT22;11956;53.184;8.578;2023-07-22T00:39:48;13.40;99.90
23556;DHT22;11956;53.184;8.578;2023-07-22T00:42:49;13.40;99.90
23556;DHT22;11956;53.184;8.578;2023-07-22T00:45:50;13.40;99.90
23556;DHT22;11956;53.184;8.578;2023-07-22T00:48:52;13.30;99.90
23556;DHT22;11956;53.184;8.578;2023-07-22T00:51:53;13.30;99.90
23556;DHT22;11956;53.184;8.578;2023-07-22T00:54:56;13.30;99.90
23556;DHT22;11956;53.184;8.578;2023-07-22T00:57:57;13.20;99.90
23556;DHT22;11956;53.184;8.578;2023-07-22T01:00:57;13.20;99.90
23556;DHT22;11956;53.184;8.578;2023-07-22T01:03:58;13.30;99.90
23556;DHT22;11956;53.184;8.578;2023-07-22T01:07:02;13.20;99.90
23556;DHT22;11956;53.184;8.578;2023-07-22T01:10:12;13.20;99.90
23556;DHT22;11956;53.184;8.578;2023-07-22T01:13:13;13.20;99.90
23556;DHT22;11956;53.184;8.578;2023-07-22T01:16:14;13.10;99.90
23556;DHT22;11956;53.184;8.578;2023-07-22T01:19:17;13.10;99.90
23556;DHT22;11956;53.184;8.578;2023-07-22T01:22:19;13.10;99.90
23556;DHT22;11956;53.184;8.578;2023-07-22T01:25:22;13.00;99.90
23556;DHT22;11956;53.184;8.578;2023-07-22T01:28:23;13.00;99.90
23556;DHT22;11956;53.184;8.578;2023-07-22T01:31:24;13.00;99.90
23556;DHT22;11956;53.184;8.578;2023-07-22T01:34:25;13.00;99.90
23556;DHT22;11956;53.184;8.578;2023-07-22T01:37:26;13.00;99.90
23556;DHT22;11956;53.184;8.578;2023-07-22T01:40:27;13.00;99.90
23556;DHT22;11956;53.184;8.578;2023-07-22T01:43:29;13.00;99.90
23556;DHT22;11956;53.184;8.578;2023-07-22T01:46:30;13.00;99.90
23556;DHT22;11956;53.184;8.578;2023-07-22T01:49:30;13.00;99.90
23556;DHT22;11956;53.184;8.578;2023-07-22T01:52:31;13.00;99.90
23556;DHT22;11956;53.184;8.578;2023-07-22T01:55:32;12.90;99.90
23556;DHT22;11956;53.184;8.578;2023-07-22T01:58:33;12.90;99.90
23556;DHT22;11956;53.184;8.578;2023-07-22T02:01:34;12.90;99.90
23556;DHT22;11956;53.184;8.578;2023-07-22T02:04:35;12.90;99.90
23556;DHT22;11956;53.184;8.578;2023-07-22T02:07:36;12.80;99.90
23556;DHT22;11956;53.184;8.578;2023-07-22T02:10:38;12.80;99.90
23556;DHT22;11956;53.184;8.578;2023-07-22T02:13:39;12.80;99.90
23556;DHT22;11956;53.184;8.578;2023-07-22T02:16:39;12.80;99.90
23556;DHT22;11956;53.184;8.578;2023-07-22T02:19:40;12.80;99.90
23556;DHT22;11956;53.184;8.578;2023-07-22T02:22:41;12.70;99.90
23556;DHT22;11956;53.184;8.578;2023-07-22T02:25:42;12.70;99.90
23556;DHT22;11956;53.184;8.578;2023-07-22T02:28:43;12.70;99.90
23556;DHT22;11956;53.184;8.578;2023-07-22T02:31:44;12.70;99.90
23556;DHT22;11956;53.184;8.578;2023-07-22T02:34:46;12.70;99.90
23556;DHT22;11956;53.184;8.578;2023-07-22T02:37:47;12.60;99.90
23556;DHT22;11956;53.184;8.578;2023-07-22T02:40:48;12.60;99.90
23556;DHT22;11956;53.184;8.578;2023-07-22T02:43:49;12.60;99.90
23556;DHT22;11956;53.184;8.578;2023-07-22T02:46:50;12.50;99.90
23556;DHT22;11956;53.184;8.578;2023-07-22T02:49:51;12.50;99.90
23556;DHT22;11956;53.184;8.578;2023-07-22T02:52:52;12.50;99.90
23556;DHT22;11956;53.184;8.578;2023-07-22T02:55:53;12.50;99.90
23556;DHT22;11956;53.184;8.578;2023-07-22T02:58:54;12.50;99.90
23556;DHT22;11956;53.184;8.578;2023-07-22T03:01:54;12.50;99.90
23556;DHT22;11956;53.184;8.578;2023-07-22T03:04:57;12.40;99.90
23556;DHT22;11956;53.184;8.578;2023-07-22T03:07:58;12.40;99.90
23556;DHT22;11956;53.184;8.578;2023-07-22T03:10:59;12.40;99.90
23556;DHT22;11956;53.184;8.578;2023-07-22T03:14:01;12.40;99.90
23556;DHT22;11956;53.184;8.578;2023-07-22T03:17:03;12.40;99.90
23556;DHT22;11956;53.184;8.578;2023-07-22T03:20:04;12.40;99.90
23556;DHT22;11956;53.184;8.578;2023-07-22T03:23:15;12.40;99.90
23556;DHT22;11956;53.184;8.578;2023-07-22T03:26:16;12.40;99.90
23556;DHT22;11956;53.184;8.578;2023-07-22T03:29:16;12.40;99.90
23556;DHT22;11956;53.184;8.578;2023-07-22T03:32:17;12.30;99.90
23556;DHT22;11956;53.184;8.578;2023-07-22T03:35:18;12.30;99.90
23556;DHT22;11956;53.184;8.578;2023-07-22T03:38:19;12.30;99.90
23556;DHT22;11956;53.184;8.578;2023-07-22T03:41:20;12.30;99.90
23556;DHT22;11956;53.184;8.578;2023-07-22T03:44:21;12.40;99.90
23556;DHT22;11956;53.184;8.578;2023-07-22T03:47:22;12.40;99.90
23556;DHT22;11956;53.184;8.578;2023-07-22T03:50:23;12.40;99.90
23556;DHT22;11956;53.184;8.578;2023-07-22T03:53:24;12.50;99.90
23556;DHT22;11956;53.184;8.578;2023-07-22T03:56:26;12.50;99.90
23556;DHT22;11956;53.184;8.578;2023-07-22T03:59:27;12.50;99.90
23556;DHT22;11956;53.184;8.578;2023-07-22T04:02:29;12.60;99.90
23556;DHT22;11956;53.184;8.578;2023-07-22T04:05:30;12.70;99.90
23556;DHT22;11956;53.184;8.578;2023-07-22T04:08:31;12.80;99.90
23556;DHT22;11956;53.184;8.578;2023-07-22T04:11:32;12.80;99.90
23556;DHT22;11956;53.184;8.578;2023-07-22T04:14:32;12.90;99.90
23556;DHT22;11956;53.184;8.578;2023-07-22T04:17:33;13.00;99.90
23556;DHT22;11956;53.184;8.578;2023-07-22T04:20:34;13.40;99.90
23556;DHT22;11956;53.184;8.578;2023-07-22T04:23:35;14.00;99.90
23556;DHT22;11956;53.184;8.578;2023-07-22T04:26:42;14.70;99.90
23556;DHT22;11956;53.184;8.578;2023-07-22T04:29:43;15.40;99.90
23556;DHT22;11956;53.184;8.578;2023-07-22T04:32:44;16.00;99.90
23556;DHT22;11956;53.184;8.578;2023-07-22T04:35:45;16.50;99.90
23556;DHT22;11956;53.184;8.578;2023-07-22T04:38:46;17.00;99.90
23556;DHT22;11956;53.184;8.578;2023-07-22T04:41:47;17.50;99.90
23556;DHT22;11956;53.184;8.578;2023-07-22T04:44:48;17.80;99.90
23556;DHT22;11956;53.184;8.578;2023-07-22T04:47:50;18.10;99.90
23556;DHT22;11956;53.184;8.578;2023-07-22T04:50:51;18.50;99.90
23556;DHT22;11956;53.184;8.578;2023-07-22T04:53:52;18.80;99.90
23556;DHT22;11956;53.184;8.578;2023-07-22T04:56:53;18.80;99.90
23556;DHT22;11956;53.184;8.578;2023-07-22T04:59:54;19.20;99.90
23556;DHT22;11956;53.184;8.578;2023-07-22T05:02:54;19.30;99.90
23556;DHT22;11956;53.184;8.578;2023-07-22T05:05:56;19.60;99.90
23556;DHT22;11956;53.184;8.578;2023-07-22T05:08:58;19.70;99.90
23556;DHT22;11956;53.184;8.578;2023-07-22T05:11:59;20.20;99.90
23556;DHT22;11956;53.184;8.578;2023-07-22T05:15:00;20.70;99.90
23556;DHT22;11956;53.184;8.578;2023-07-22T05:18:01;21.10;99.90
23556;DHT22;11956;53.184;8.578;2023-07-22T05:21:02;21.50;99.90
23556;DHT22;11956;53.184;8.578;2023-07-22T05:24:03;22.20;99.90
23556;DHT22;11956;53.184;8.578;2023-07-22T05:27:04;22.50;99.90
23556;DHT22;11956;53.184;8.578;2023-07-22T05:30:07;23.10;99.90
23556;DHT22;11956;53.184;8.578;2023-07-22T05:33:08;23.70;99.90
23556;DHT22;11956;53.184;8.578;2023-07-22T05:36:08;24.30;99.90
23556;DHT22;11956;53.184;8.578;2023-07-22T05:39:09;24.50;99.90
23556;DHT22;11956;53.184;8.578;2023-07-22T05:42:10;24.30;99.90
23556;DHT22;11956;53.184;8.578;2023-07-22T05:45:11;23.90;99.90
23556;DHT22;11956;53.184;8.578;2023-07-22T05:48:15;23.20;99.90
23556;DHT22;11956;53.184;8.578;2023-07-22T05:51:17;22.80;99.90
23556;DHT22;11956;53.184;8.578;2023-07-22T05:54:18;23.20;99.90
23556;DHT22;11956;53.184;8.578;2023-07-22T05:57:19;23.70;99.90
23556;DHT22;11956;53.184;8.578;2023-07-22T06:00:20;23.70;99.90
23556;DHT22;11956;53.184;8.578;2023-07-22T06:03:21;23.00;99.90
23556;DHT22;11956;53.184;8.578;2023-07-22T06:06:22;22.10;99.90
23556;DHT22;11956;53.184;8.578;2023-07-22T06:09:23;21.50;99.90
23556;DHT22;11956;53.184;8.578;2023-07-22T06:12:24;20.80;99.90
23556;DHT22;11956;53.184;8.578;2023-07-22T06:15:25;20.70;99.90
23556;DHT22;11956;53.184;8.578;2023-07-22T06:18:26;21.00;99.90
23556;DHT22;11956;53.184;8.578;2023-07-22T06:21:27;21.40;99.90
23556;DHT22;11956;53.184;8.578;2023-07-22T06:24:28;21.70;99.90
23556;DHT22;11956;53.184;8.578;2023-07-22T06:27:29;22.00;99.90
23556;DHT22;11956;53.184;8.578;2023-07-22T06:30:31;22.90;99.90
23556;DHT22;11956;53.184;8.578;2023-07-22T06:33:31;24.00;99.90
23556;DHT22;11956;53.184;8.578;2023-07-22T06:36:32;25.60;99.90
23556;DHT22;11956;53.184;8.578;2023-07-22T06:39:33;26.70;98.50
23556;DHT22;11956;53.184;8.578;2023-07-22T06:42:34;26.40;97.60
23556;DHT22;11956;53.184;8.578;2023-07-22T06:45:35;26.40;97.50
23556;DHT22;11956;53.184;8.578;2023-07-22T06:48:36;27.30;96.20
23556;DHT22;11956;53.184;8.578;2023-07-22T06:51:36;28.30;94.50
23556;DHT22;11956;53.184;8.578;2023-07-22T06:54:37;28.20;94.10
23556;DHT22;11956;53.184;8.578;2023-07-22T06:57:38;28.60;92.80
23556;DHT22;11956;53.184;8.578;2023-07-22T07:00:39;28.50;93.00
23556;DHT22;11956;53.184;8.578;2023-07-22T07:03:40;29.00;91.80
23556;DHT22;11956;53.184;8.578;2023-07-22T07:06:41;29.60;90.60
23556;DHT22;11956;53.184;8.578;2023-07-22T07:09:42;29.80;90.40
23556;DHT22;11956;53.184;8.578;2023-07-22T07:12:42;30.50;88.10
23556;DHT22;11956;53.184;8.578;2023-07-22T07:15:47;29.80;87.80
23556;DHT22;11956;53.184;8.578;2023-07-22T07:18:51;29.20;89.50
23556;DHT22;11956;53.184;8.578;2023-07-22T07:21:54;28.80;90.10
23556;DHT22;11956;53.184;8.578;2023-07-22T07:24:55;27.90;90.90
23556;DHT22;11956;53.184;8.578;2023-07-22T07:27:56;27.30;91.80
23556;DHT22;11956;53.184;8.578;2023-07-22T07:30:57;27.00;92.20
23556;DHT22;11956;53.184;8.578;2023-07-22T07:33:58;26.50;93.00
23556;DHT22;11956;53.184;8.578;2023-07-22T07:36:59;27.50;92.50
23556;DHT22;11956;53.184;8.578;2023-07-22T07:39:59;28.90;90.60
23556;DHT22;11956;53.184;8.578;2023-07-22T07:43:00;27.40;91.80
23556;DHT22;11956;53.184;8.578;2023-07-22T07:46:15;27.30;92.40
23556;DHT22;11956;53.184;8.578;2023-07-22T07:49:17;27.40;91.80
23556;DHT22;11956;53.184;8.578;2023-07-22T07:52:18;27.60;91.80
23556;DHT22;11956;53.184;8.578;2023-07-22T07:55:19;28.30;91.10
23556;DHT22;11956;53.184;8.578;2023-07-22T07:58:20;28.40;90.70
23556;DHT22;11956;53.184;8.578;2023-07-22T08:01:21;27.80;91.80
23556;DHT22;11956;53.184;8.578;2023-07-22T08:04:22;28.50;90.70
23556;DHT22;11956;53.184;8.578;2023-07-22T08:07:24;29.10;90.20
23556;DHT22;11956;53.184;8.578;2023-07-22T08:10:24;28.60;90.10
23556;DHT22;11956;53.184;8.578;2023-07-22T08:13:25;27.40;91.20
23556;DHT22;11956;53.184;8.578;2023-07-22T08:16:27;26.70;92.10
23556;DHT22;11956;53.184;8.578;2023-07-22T08:19:28;25.80;93.10
23556;DHT22;11956;53.184;8.578;2023-07-22T08:22:29;25.40;94.10
23556;DHT22;11956;53.184;8.578;2023-07-22T08:25:30;25.10;95.40
23556;DHT22;11956;53.184;8.578;2023-07-22T08:28:31;25.00;94.70
23556;DHT22;11956;53.184;8.578;2023-07-22T08:31:32;25.50;94.40
23556;DHT22;11956;53.184;8.578;2023-07-22T08:34:33;25.90;93.30
23556;DHT22;11956;53.184;8.578;2023-07-22T08:37:34;26.10;93.00
23556;DHT22;11956;53.184;8.578;2023-07-22T08:40:39;25.60;93.10
23556;DHT22;11956;53.184;8.578;2023-07-22T08:43:41;24.90;94.00
23556;DHT22;11956;53.184;8.578;2023-07-22T08:46:43;24.90;94.80
23556;DHT22;11956;53.184;8.578;2023-07-22T08:49:50;24.90;95.60
23556;DHT22;11956;53.184;8.578;2023-07-22T08:52:53;25.10;95.60
23556;DHT22;11956;53.184;8.578;2023-07-22T08:55:53;27.00;93.60
23556;DHT22;11956;53.184;8.578;2023-07-22T08:58:56;26.80;92.90
23556;DHT22;11956;53.184;8.578;2023-07-22T09:01:57;26.50;92.40
23556;DHT22;11956;53.184;8.578;2023-07-22T09:04:58;25.40;94.20
23556;DHT22;11956;53.184;8.578;2023-07-22T09:08:02;24.80;94.10
23556;DHT22;11956;53.184;8.578;2023-07-22T09:11:04;24.20;95.80
23556;DHT22;11956;53.184;8.578;2023-07-22T09:14:05;24.20;96.70
23556;DHT22;11956;53.184;8.578;2023-07-22T09:17:06;24.80;96.40
23556;DHT22;11956;53.184;8.578;2023-07-22T09:20:07;26.20;94.10
23556;DHT22;11956;53.184;8.578;2023-07-22T09:23:08;27.10;92.50
23556;DHT22;11956;53.184;8.578;2023-07-22T09:26:17;26.90;92.20
23556;DHT22;11956;53.184;8.578;2023-07-22T09:29:18;26.10;93.90
23556;DHT22;11956;53.184;8.578;2023-07-22T09:32:36;27.90;91.80
23556;DHT22;11956;53.184;8.578;2023-07-22T09:38:44;29.80;88.50
23556;DHT22;11956;53.184;8.578;2023-07-22T09:41:45;31.10;83.00
23556;DHT22;11956;53.184;8.578;2023-07-22T09:44:48;31.20;83.10
23556;DHT22;11956;53.184;8.578;2023-07-22T09:47:50;31.40;81.80
23556;DHT22;11956;53.184;8.578;2023-07-22T09:50:56;31.20;81.70
23556;DHT22;11956;53.184;8.578;2023-07-22T09:54:02;31.10;80.80
23556;DHT22;11956;53.184;8.578;2023-07-22T09:57:04;29.50;82.90
23556;DHT22;11956;53.184;8.578;2023-07-22T10:00:05;28.40;85.30
23556;DHT22;11956;53.184;8.578;2023-07-22T10:03:12;27.60;87.90
23556;DHT22;11956;53.184;8.578;2023-07-22T10:06:16;27.60;89.40
23556;DHT22;11956;53.184;8.578;2023-07-22T10:09:18;28.10;88.10
23556;DHT22;11956;53.184;8.578;2023-07-22T10:12:20;27.20;90.20
23556;DHT22;11956;53.184;8.578;2023-07-22T10:15:21;26.50;91.30
23556;DHT22;11956;53.184;8.578;2023-07-22T10:18:23;25.70;92.70
23556;DHT22;11956;53.184;8.578;2023-07-22T10:21:25;25.20;94.00
23556;DHT22;11956;53.184;8.578;2023-07-22T10:24:27;25.10;94.90
23556;DHT22;11956;53.184;8.578;2023-07-22T10:27:28;24.60;95.80
23556;DHT22;11956;53.184;8.578;2023-07-22T10:30:30;24.60;95.50
23556;DHT22;11956;53.184;8.578;2023-07-22T10:33:31;24.10;95.00
23556;DHT22;11956;53.184;8.578;2023-07-22T10:36:32;24.10;95.50
23556;DHT22;11956;53.184;8.578;2023-07-22T10:39:33;24.10;95.20
23556;DHT22;11956;53.184;8.578;2023-07-22T10:42:34;24.40;95.30
23556;DHT22;11956;53.184;8.578;2023-07-22T10:45:40;24.60;95.50
23556;DHT22;11956;53.184;8.578;2023-07-22T10:49:10;24.30;96.50
23556;DHT22;11956;53.184;8.578;2023-07-22T10:52:14;23.70;97.80
23556;DHT22;11956;53.184;8.578;2023-07-22T10:55:19;23.30;98.80
23556;DHT22;11956;53.184;8.578;2023-07-22T10:58:20;23.10;99.60
23556;DHT22;11956;53.184;8.578;2023-07-22T11:04:28;23.00;99.90
23556;DHT22;11956;53.184;8.578;2023-07-22T11:07:33;23.10;99.40
23556;DHT22;11956;53.184;8.578;2023-07-22T11:10:35;23.60;98.50
23556;DHT22;11956;53.184;8.578;2023-07-22T11:13:40;23.70;97.90
23556;DHT22;11956;53.184;8.578;2023-07-22T11:16:46;23.80;98.10
23556;DHT22;11956;53.184;8.578;2023-07-22T11:19:47;23.80;98.10
23556;DHT22;11956;53.184;8.578;2023-07-22T11:22:50;23.70;98.70
23556;DHT22;11956;53.184;8.578;2023-07-22T11:25:51;23.40;98.80
23556;DHT22;11956;53.184;8.578;2023-07-22T11:28:52;23.10;99.60
23556;DHT22;11956;53.184;8.578;2023-07-22T11:31:54;22.70;99.90
23556;DHT22;11956;53.184;8.578;2023-07-22T11:34:56;22.40;99.90
23556;DHT22;11956;53.184;8.578;2023-07-22T11:38:02;22.40;99.90
23556;DHT22;11956;53.184;8.578;2023-07-22T11:41:04;22.70;99.90
23556;DHT22;11956;53.184;8.578;2023-07-22T11:44:05;23.00;99.90
23556;DHT22;11956;53.184;8.578;2023-07-22T11:47:10;23.10;99.50
23556;DHT22;11956;53.184;8.578;2023-07-22T11:50:12;23.00;99.90
23556;DHT22;11956;53.184;8.578;2023-07-22T11:53:13;22.80;99.90
23556;DHT22;11956;53.184;8.578;2023-07-22T11:56:28;22.70;99.90
23556;DHT22;11956;53.184;8.578;2023-07-22T11:59:38;22.60;99.90
23556;DHT22;11956;53.184;8.578;2023-07-22T12:02:41;22.40;99.90
23556;DHT22;11956;53.184;8.578;2023-07-22T12:05:42;22.20;99.90
23556;DHT22;11956;53.184;8.578;2023-07-22T12:08:47;21.90;99.90
23556;DHT22;11956;53.184;8.578;2023-07-22T12:11:55;21.50;99.90
23556;DHT22;11956;53.184;8.578;2023-07-22T12:15:03;21.20;99.90
23556;DHT22;11956;53.184;8.578;2023-07-22T12:18:13;20.60;99.90
23556;DHT22;11956;53.184;8.578;2023-07-22T12:21:14;20.10;99.90
23556;DHT22;11956;53.184;8.578;2023-07-22T12:24:15;19.60;99.90
23556;DHT22;11956;53.184;8.578;2023-07-22T12:27:16;19.10;99.90
23556;DHT22;11956;53.184;8.578;2023-07-22T12:30:18;18.50;99.90
23556;DHT22;11956;53.184;8.578;2023-07-22T12:33:19;18.00;99.90
23556;DHT22;11956;53.184;8.578;2023-07-22T12:36:20;17.50;99.90
23556;DHT22;11956;53.184;8.578;2023-07-22T12:39:21;17.20;99.90
23556;DHT22;11956;53.184;8.578;2023-07-22T12:42:22;17.00;99.90
23556;DHT22;11956;53.184;8.578;2023-07-22T12:45:23;16.80;99.90
23556;DHT22;11956;53.184;8.578;2023-07-22T12:48:23;16.70;99.90
23556;DHT22;11956;53.184;8.578;2023-07-22T12:51:24;16.60;99.90
23556;DHT22;11956;53.184;8.578;2023-07-22T12:54:25;16.70;99.90
23556;DHT22;11956;53.184;8.578;2023-07-22T12:57:26;16.60;99.90
23556;DHT22;11956;53.184;8.578;2023-07-22T13:00:28;16.80;99.90
23556;DHT22;11956;53.184;8.578;2023-07-22T13:03:28;16.70;99.90
23556;DHT22;11956;53.184;8.578;2023-07-22T13:06:30;16.80;99.90
23556;DHT22;11956;53.184;8.578;2023-07-22T13:09:31;17.00;99.90
23556;DHT22;11956;53.184;8.578;2023-07-22T13:12:32;17.00;99.90
23556;DHT22;11956;53.184;8.578;2023-07-22T13:15:34;16.80;99.90
23556;DHT22;11956;53.184;8.578;2023-07-22T13:18:35;16.70;99.90
23556;DHT22;11956;53.184;8.578;2023-07-22T13:21:35;16.60;99.90
23556;DHT22;11956;53.184;8.578;2023-07-22T13:24:36;16.70;99.90
23556;DHT22;11956;53.184;8.578;2023-07-22T13:27:37;16.80;99.90
23556;DHT22;11956;53.184;8.578;2023-07-22T13:30:41;17.00;99.90
23556;DHT22;11956;53.184;8.578;2023-07-22T13:33:42;17.20;99.90
23556;DHT22;11956;53.184;8.578;2023-07-22T13:36:43;17.40;99.90
23556;DHT22;11956;53.184;8.578;2023-07-22T13:39:44;17.50;99.90
23556;DHT22;11956;53.184;8.578;2023-07-22T13:42:45;17.70;99.90
23556;DHT22;11956;53.184;8.578;2023-07-22T13:45:46;17.70;99.90
23556;DHT22;11956;53.184;8.578;2023-07-22T13:48:48;17.60;99.90
23556;DHT22;11956;53.184;8.578;2023-07-22T13:51:49;17.50;99.90
23556;DHT22;11956;53.184;8.578;2023-07-22T13:54:50;17.30;99.90
23556;DHT22;11956;53.184;8.578;2023-07-22T13:57:50;17.30;99.90
23556;DHT22;11956;53.184;8.578;2023-07-22T14:00:51;17.10;99.90
23556;DHT22;11956;53.184;8.578;2023-07-22T14:03:52;17.20;99.90
23556;DHT22;11956;53.184;8.578;2023-07-22T14:06:53;17.20;99.90
23556;DHT22;11956;53.184;8.578;2023-07-22T14:09:54;17.20;99.90
23556;DHT22;11956;53.184;8.578;2023-07-22T14:12:55;17.30;99.90
23556;DHT22;11956;53.184;8.578;2023-07-22T14:15:56;17.20;99.90
23556;DHT22;11956;53.184;8.578;2023-07-22T14:18:57;17.20;99.90
23556;DHT22;11956;53.184;8.578;2023-07-22T14:21:58;17.00;99.90
23556;DHT22;11956;53.184;8.578;2023-07-22T14:24:59;17.00;99.90
23556;DHT22;11956;53.184;8.578;2023-07-22T14:28:00;16.80;99.90
23556;DHT22;11956;53.184;8.578;2023-07-22T14:31:00;16.60;99.90
23556;DHT22;11956;53.184;8.578;2023-07-22T14:34:01;16.50;99.90
23556;DHT22;11956;53.184;8.578;2023-07-22T14:37:02;16.60;99.90
23556;DHT22;11956;53.184;8.578;2023-07-22T14:40:07;16.70;99.90
23556;DHT22;11956;53.184;8.578;2023-07-22T14:43:12;16.80;99.90
23556;DHT22;11956;53.184;8.578;2023-07-22T14:46:13;17.00;99.90
23556;DHT22;11956;53.184;8.578;2023-07-22T14:49:14;17.00;99.90
23556;DHT22;11956;53.184;8.578;2023-07-22T14:52:15;16.90;99.90
23556;DHT22;11956;53.184;8.578;2023-07-22T14:55:15;16.90;99.90
23556;DHT22;11956;53.184;8.578;2023-07-22T14:58:16;17.20;99.90
23556;DHT22;11956;53.184;8.578;2023-07-22T15:01:17;17.30;99.90
23556;DHT22;11956;53.184;8.578;2023-07-22T15:04:18;17.30;99.90
23556;DHT22;11956;53.184;8.578;2023-07-22T15:07:20;17.30;99.90
23556;DHT22;11956;53.184;8.578;2023-07-22T15:10:23;17.40;99.90
23556;DHT22;11956;53.184;8.578;2023-07-22T15:13:24;17.40;99.90
23556;DHT22;11956;53.184;8.578;2023-07-22T15:16:25;17.40;99.90
23556;DHT22;11956;53.184;8.578;2023-07-22T15:19:26;17.40;99.90
23556;DHT22;11956;53.184;8.578;2023-07-22T15:22:27;17.60;99.90
23556;DHT22;11956;53.184;8.578;2023-07-22T15:25:28;17.60;99.90
23556;DHT22;11956;53.184;8.578;2023-07-22T15:28:29;17.60;99.90
23556;DHT22;11956;53.184;8.578;2023-07-22T15:31:29;17.60;99.90
23556;DHT22;11956;53.184;8.578;2023-07-22T15:34:30;17.20;99.90
23556;DHT22;11956;53.184;8.578;2023-07-22T15:37:31;16.90;99.90
23556;DHT22;11956;53.184;8.578;2023-07-22T15:40:35;16.90;99.90
23556;DHT22;11956;53.184;8.578;2023-07-22T15:43:36;16.80;99.90
23556;DHT22;11956;53.184;8.578;2023-07-22T15:46:37;16.70;99.90
23556;DHT22;11956;53.184;8.578;2023-07-22T15:49:38;16.70;99.90
23556;DHT22;11956;53.184;8.578;2023-07-22T15:52:39;16.70;99.90
23556;DHT22;11956;53.184;8.578;2023-07-22T15:55:39;16.70;99.90
23556;DHT22;11956;53.184;8.578;2023-07-22T15:58:40;16.70;99.90
23556;DHT22;11956;53.184;8.578;2023-07-22T16:01:41;16.80;99.90
23556;DHT22;11956;53.184;8.578;2023-07-22T16:04:43;16.80;99.90
23556;DHT22;11956;53.184;8.578;2023-07-22T16:07:44;17.00;99.90
23556;DHT22;11956;53.184;8.578;2023-07-22T16:10:45;17.10;99.90
23556;DHT22;11956;53.184;8.578;2023-07-22T16:13:46;17.20;99.90
23556;DHT22;11956;53.184;8.578;2023-07-22T16:16:47;17.30;99.90
23556;DHT22;11956;53.184;8.578;2023-07-22T16:19:48;17.40;99.90
23556;DHT22;11956;53.184;8.578;2023-07-22T16:22:49;17.40;99.90
23556;DHT22;11956;53.184;8.578;2023-07-22T16:25:50;17.40;99.90
23556;DHT22;11956;53.184;8.578;2023-07-22T16:28:50;17.50;99.90
23556;DHT22;11956;53.184;8.578;2023-07-22T16:31:51;17.50;99.90
23556;DHT22;11956;53.184;8.578;2023-07-22T16:34:52;17.40;99.90
23556;DHT22;11956;53.184;8.578;2023-07-22T16:37:53;17.30;99.90
23556;DHT22;11956;53.184;8.578;2023-07-22T16:40:54;17.20;99.90
23556;DHT22;11956;53.184;8.578;2023-07-22T16:43:55;17.10;99.90
23556;DHT22;11956;53.184;8.578;2023-07-22T16:46:56;16.90;99.90
23556;DHT22;11956;53.184;8.578;2023-07-22T16:49:56;16.90;99.90
23556;DHT22;11956;53.184;8.578;2023-07-22T16:52:57;16.80;99.90
23556;DHT22;11956;53.184;8.578;2023-07-22T16:55:59;16.70;99.90
23556;DHT22;11956;53.184;8.578;2023-07-22T16:59:00;16.70;99.90
23556;DHT22;11956;53.184;8.578;2023-07-22T17:02:01;16.60;99.90
23556;DHT22;11956;53.184;8.578;2023-07-22T17:05:02;16.60;99.90
23556;DHT22;11956;53.184;8.578;2023-07-22T17:08:05;16.50;99.90
23556;DHT22;11956;53.184;8.578;2023-07-22T17:11:06;16.40;99.90
23556;DHT22;11956;53.184;8.578;2023-07-22T17:14:07;16.30;99.90
23556;DHT22;11956;53.184;8.578;2023-07-22T17:17:08;16.20;99.90
23556;DHT22;11956;53.184;8.578;2023-07-22T17:20:09;16.20;99.90
23556;DHT22;11956;53.184;8.578;2023-07-22T17:23:11;16.20;99.90
23556;DHT22;11956;53.184;8.578;2023-07-22T17:26:12;16.20;99.90
23556;DHT22;11956;53.184;8.578;2023-07-22T17:29:13;16.10;99.90
23556;DHT22;11956;53.184;8.578;2023-07-22T17:32:14;16.00;99.90
23556;DHT22;11956;53.184;8.578;2023-07-22T17:35:15;16.00;99.90
23556;DHT22;11956;53.184;8.578;2023-07-22T17:38:17;16.00;99.90
23556;DHT22;11956;53.184;8.578;2023-07-22T17:41:18;16.00;99.90
23556;DHT22;11956;53.184;8.578;2023-07-22T17:44:19;16.00;99.90
23556;DHT22;11956;53.184;8.578;2023-07-22T17:47:20;15.90;99.90
23556;DHT22;11956;53.184;8.578;2023-07-22T17:50:21;16.00;99.90
23556;DHT22;11956;53.184;8.578;2023-07-22T17:53:22;16.00;99.90
23556;DHT22;11956;53.184;8.578;2023-07-22T17:56:23;16.00;99.90
23556;DHT22;11956;53.184;8.578;2023-07-22T17:59:23;15.90;99.90
23556;DHT22;11956;53.184;8.578;2023-07-22T18:02:24;15.90;99.90
23556;DHT22;11956;53.184;8.578;2023-07-22T18:05:25;15.80;99.90
23556;DHT22;11956;53.184;8.578;2023-07-22T18:08:27;15.70;99.90
23556;DHT22;11956;53.184;8.578;2023-07-22T18:11:28;15.70;99.90
23556;DHT22;11956;53.184;8.578;2023-07-22T18:14:29;15.70;99.90
23556;DHT22;11956;53.184;8.578;2023-07-22T18:17:30;15.60;99.90
23556;DHT22;11956;53.184;8.578;2023-07-22T18:20:33;15.60;99.90
23556;DHT22;11956;53.184;8.578;2023-07-22T18:23:34;15.50;99.90
23556;DHT22;11956;53.184;8.578;2023-07-22T18:26:35;15.50;99.90
23556;DHT22;11956;53.184;8.578;2023-07-22T18:29:36;15.50;99.90
23556;DHT22;11956;53.184;8.578;2023-07-22T18:32:37;15.50;99.90
23556;DHT22;11956;53.184;8.578;2023-07-22T18:35:38;15.50;99.90
23556;DHT22;11956;53.184;8.578;2023-07-22T18:38:38;15.50;99.90
23556;DHT22;11956;53.184;8.578;2023-07-22T18:41:40;15.50;99.90
23556;DHT22;11956;53.184;8.578;2023-07-22T18:44:41;15.50;99.90
23556;DHT22;11956;53.184;8.578;2023-07-22T18:47:42;15.50;99.90
23556;DHT22;11956;53.184;8.578;2023-07-22T18:50:43;15.40;99.90
23556;DHT22;11956;53.184;8.578;2023-07-22T18:53:44;15.40;99.90
23556;DHT22;11956;53.184;8.578;2023-07-22T18:56:45;15.40;99.90
23556;DHT22;11956;53.184;8.578;2023-07-22T18:59:45;15.40;99.90
23556;DHT22;11956;53.184;8.578;2023-07-22T19:02:46;15.40;99.90
23556;DHT22;11956;53.184;8.578;2023-07-22T19:05:54;15.30;99.90
23556;DHT22;11956;53.184;8.578;2023-07-22T19:08:55;15.30;99.90
23556;DHT22;11956;53.184;8.578;2023-07-22T19:11:56;15.30;99.90